sensor_id;sensor_type;location;lat;lon;timestamp;P1;durP1;ratioP1;P2;durP2;ratioP2
47287;SDS011;33020;53.008;13.558;2023-05-16T00:00:58;12.75;;;9.10;;
47287;SDS011;33020;53.008;13.558;2023-05-16T00:03:27;9.50;;;8.53;;
47287;SDS011;33020;53.008;13.558;2023-05-16T00:05:57;11.05;;;9.60;;
47287;SDS011;33020;53.008;13.558;2023-05-16T00:08:24;10.57;;;8.75;;
47287;SDS011;33020;53.008;13.558;2023-05-16T00:10:52;12.20;;;10.05;;
47287;SDS011;33020;53.008;13.558;2023-05-16T00:13:18;9.52;;;8.60;;
47287;SDS011;33020;53.008;13.558;2023-05-16T00:15:53;9.98;;;8.32;;
47287;SDS011;33020;53.008;13.558;2023-05-16T00:18:23;10.27;;;8.47;;
47287;SDS011;33020;53.008;13.558;2023-05-16T00:20:51;9.43;;;8.33;;
47287;SDS011;33020;53.008;13.558;2023-05-16T00:23:20;10.10;;;8.90;;
47287;SDS011;33020;53.008;13.558;2023-05-16T00:25:47;11.63;;;9.13;;
47287;SDS011;33020;53.008;13.558;2023-05-16T00:28:14;9.63;;;8.57;;
47287;SDS011;33020;53.008;13.558;2023-05-16T00:30:41;9.70;;;8.50;;
47287;SDS011;33020;53.008;13.558;2023-05-16T00:33:07;10.07;;;8.70;;
47287;SDS011;33020;53.008;13.558;2023-05-16T00:35:34;10.77;;;8.90;;
47287;SDS011;33020;53.008;13.558;2023-05-16T00:38:03;9.77;;;8.43;;
47287;SDS011;33020;53.008;13.558;2023-05-16T00:40:29;10.47;;;8.80;;
47287;SDS011;33020;53.008;13.558;2023-05-16T00:42:56;10.70;;;8.80;;
47287;SDS011;33020;53.008;13.558;2023-05-16T00:45:23;10.03;;;8.43;;
47287;SDS011;33020;53.008;13.558;2023-05-16T00:47:50;11.17;;;8.60;;
47287;SDS011;33020;53.008;13.558;2023-05-16T00:50:17;10.60;;;8.63;;
47287;SDS011;33020;53.008;13.558;2023-05-16T00:52:44;12.47;;;8.57;;
47287;SDS011;33020;53.008;13.558;2023-05-16T00:55:11;9.57;;;8.10;;
47287;SDS011;33020;53.008;13.558;2023-05-16T00:57:38;12.20;;;9.53;;
47287;SDS011;33020;53.008;13.558;2023-05-16T01:00:05;9.87;;;8.17;;
47287;SDS011;33020;53.008;13.558;2023-05-16T01:02:42;13.10;;;9.50;;
47287;SDS011;33020;53.008;13.558;2023-05-16T01:05:09;10.93;;;8.87;;
47287;SDS011;33020;53.008;13.558;2023-05-16T01:07:35;10.80;;;8.00;;
47287;SDS011;33020;53.008;13.558;2023-05-16T01:10:02;9.87;;;8.73;;
47287;SDS011;33020;53.008;13.558;2023-05-16T01:12:34;10.73;;;8.57;;
47287;SDS011;33020;53.008;13.558;2023-05-16T01:20:34;11.43;;;9.15;;
47287;SDS011;33020;53.008;13.558;2023-05-16T01:23:08;11.05;;;9.18;;
47287;SDS011;33020;53.008;13.558;2023-05-16T01:28:12;10.83;;;8.93;;
47287;SDS011;33020;53.008;13.558;2023-05-16T01:30:39;12.63;;;9.57;;
47287;SDS011;33020;53.008;13.558;2023-05-16T01:33:07;11.90;;;9.60;;
47287;SDS011;33020;53.008;13.558;2023-05-16T01:35:57;10.00;;;8.27;;
47287;SDS011;33020;53.008;13.558;2023-05-16T01:38:24;12.10;;;8.97;;
47287;SDS011;33020;53.008;13.558;2023-05-16T01:41:03;10.30;;;8.53;;
47287;SDS011;33020;53.008;13.558;2023-05-16T01:43:42;9.30;;;7.83;;
47287;SDS011;33020;53.008;13.558;2023-05-16T01:46:14;12.57;;;9.30;;
47287;SDS011;33020;53.008;13.558;2023-05-16T01:48:49;11.77;;;9.93;;
47287;SDS011;33020;53.008;13.558;2023-05-16T01:51:21;12.20;;;10.50;;
47287;SDS011;33020;53.008;13.558;2023-05-16T01:53:50;10.67;;;8.87;;
47287;SDS011;33020;53.008;13.558;2023-05-16T01:56:17;11.00;;;8.80;;
47287;SDS011;33020;53.008;13.558;2023-05-16T01:58:45;10.73;;;9.27;;
47287;SDS011;33020;53.008;13.558;2023-05-16T02:01:13;10.73;;;9.50;;
47287;SDS011;33020;53.008;13.558;2023-05-16T02:03:39;12.47;;;10.00;;
47287;SDS011;33020;53.008;13.558;2023-05-16T02:06:06;12.47;;;10.00;;
47287;SDS011;33020;53.008;13.558;2023-05-16T02:08:33;12.90;;;10.20;;
47287;SDS011;33020;53.008;13.558;2023-05-16T02:11:00;12.80;;;9.83;;
47287;SDS011;33020;53.008;13.558;2023-05-16T02:13:26;12.33;;;10.23;;
47287;SDS011;33020;53.008;13.558;2023-05-16T02:15:53;13.33;;;10.60;;
47287;SDS011;33020;53.008;13.558;2023-05-16T02:18:20;14.63;;;11.67;;
47287;SDS011;33020;53.008;13.558;2023-05-16T02:20:49;16.80;;;12.67;;
47287;SDS011;33020;53.008;13.558;2023-05-16T02:23:16;15.17;;;12.37;;
47287;SDS011;33020;53.008;13.558;2023-05-16T02:25:42;14.47;;;9.27;;
47287;SDS011;33020;53.008;13.558;2023-05-16T02:28:09;12.60;;;9.80;;
47287;SDS011;33020;53.008;13.558;2023-05-16T02:30:36;10.37;;;9.03;;
47287;SDS011;33020;53.008;13.558;2023-05-16T02:33:03;10.30;;;8.73;;
47287;SDS011;33020;53.008;13.558;2023-05-16T02:35:30;10.47;;;8.37;;
47287;SDS011;33020;53.008;13.558;2023-05-16T02:37:56;10.40;;;9.17;;
47287;SDS011;33020;53.008;13.558;2023-05-16T02:40:23;10.63;;;9.03;;
47287;SDS011;33020;53.008;13.558;2023-05-16T02:42:50;10.87;;;9.67;;
47287;SDS011;33020;53.008;13.558;2023-05-16T02:45:16;12.53;;;10.03;;
47287;SDS011;33020;53.008;13.558;2023-05-16T02:47:43;12.40;;;9.63;;
47287;SDS011;33020;53.008;13.558;2023-05-16T02:50:10;12.57;;;9.60;;
47287;SDS011;33020;53.008;13.558;2023-05-16T02:52:36;12.13;;;9.10;;
47287;SDS011;33020;53.008;13.558;2023-05-16T02:55:03;12.07;;;10.17;;
47287;SDS011;33020;53.008;13.558;2023-05-16T02:57:47;12.85;;;9.95;;
47287;SDS011;33020;53.008;13.558;2023-05-16T03:00:14;13.57;;;10.13;;
47287;SDS011;33020;53.008;13.558;2023-05-16T03:02:44;15.30;;;11.50;;
47287;SDS011;33020;53.008;13.558;2023-05-16T03:05:11;14.33;;;10.37;;
47287;SDS011;33020;53.008;13.558;2023-05-16T03:07:37;15.53;;;12.13;;
47287;SDS011;33020;53.008;13.558;2023-05-16T03:10:04;16.27;;;12.13;;
47287;SDS011;33020;53.008;13.558;2023-05-16T03:12:32;15.73;;;11.77;;
47287;SDS011;33020;53.008;13.558;2023-05-16T03:14:58;17.60;;;13.30;;
47287;SDS011;33020;53.008;13.558;2023-05-16T03:17:25;15.67;;;12.20;;
47287;SDS011;33020;53.008;13.558;2023-05-16T03:19:52;15.90;;;13.00;;
47287;SDS011;33020;53.008;13.558;2023-05-16T03:22:19;17.80;;;13.20;;
47287;SDS011;33020;53.008;13.558;2023-05-16T03:24:46;17.47;;;13.30;;
47287;SDS011;33020;53.008;13.558;2023-05-16T03:27:12;17.63;;;12.83;;
47287;SDS011;33020;53.008;13.558;2023-05-16T03:29:39;18.10;;;12.57;;
47287;SDS011;33020;53.008;13.558;2023-05-16T03:32:06;16.88;;;13.15;;
47287;SDS011;33020;53.008;13.558;2023-05-16T03:34:33;19.67;;;14.70;;
47287;SDS011;33020;53.008;13.558;2023-05-16T03:36:59;20.10;;;14.33;;
47287;SDS011;33020;53.008;13.558;2023-05-16T03:39:26;16.23;;;12.23;;
47287;SDS011;33020;53.008;13.558;2023-05-16T03:41:53;16.08;;;12.55;;
47287;SDS011;33020;53.008;13.558;2023-05-16T03:44:22;14.53;;;11.67;;
47287;SDS011;33020;53.008;13.558;2023-05-16T03:46:49;16.52;;;11.93;;
47287;SDS011;33020;53.008;13.558;2023-05-16T03:49:16;19.17;;;14.23;;
47287;SDS011;33020;53.008;13.558;2023-05-16T03:51:43;18.40;;;12.73;;
47287;SDS011;33020;53.008;13.558;2023-05-16T03:54:10;24.38;;;14.57;;
47287;SDS011;33020;53.008;13.558;2023-05-16T03:56:37;19.92;;;14.65;;
47287;SDS011;33020;53.008;13.558;2023-05-16T03:59:04;19.13;;;14.17;;
47287;SDS011;33020;53.008;13.558;2023-05-16T04:01:30;19.85;;;14.60;;
47287;SDS011;33020;53.008;13.558;2023-05-16T04:03:57;19.80;;;14.23;;
47287;SDS011;33020;53.008;13.558;2023-05-16T04:06:24;24.40;;;15.75;;
47287;SDS011;33020;53.008;13.558;2023-05-16T04:08:51;20.45;;;14.88;;
47287;SDS011;33020;53.008;13.558;2023-05-16T04:11:17;23.30;;;15.95;;
47287;SDS011;33020;53.008;13.558;2023-05-16T04:13:44;25.38;;;16.65;;
47287;SDS011;33020;53.008;13.558;2023-05-16T04:16:11;25.02;;;16.65;;
47287;SDS011;33020;53.008;13.558;2023-05-16T04:18:38;23.17;;;14.88;;
47287;SDS011;33020;53.008;13.558;2023-05-16T04:21:05;23.17;;;15.82;;
47287;SDS011;33020;53.008;13.558;2023-05-16T04:23:32;30.00;;;17.80;;
47287;SDS011;33020;53.008;13.558;2023-05-16T04:25:59;23.70;;;15.40;;
47287;SDS011;33020;53.008;13.558;2023-05-16T04:28:27;25.05;;;16.83;;
47287;SDS011;33020;53.008;13.558;2023-05-16T04:30:53;24.95;;;15.63;;
47287;SDS011;33020;53.008;13.558;2023-05-16T04:33:20;25.20;;;16.35;;
47287;SDS011;33020;53.008;13.558;2023-05-16T04:35:47;25.17;;;17.13;;
47287;SDS011;33020;53.008;13.558;2023-05-16T04:38:14;25.08;;;16.38;;
47287;SDS011;33020;53.008;13.558;2023-05-16T04:40:40;24.38;;;16.05;;
47287;SDS011;33020;53.008;13.558;2023-05-16T04:43:07;21.73;;;15.02;;
47287;SDS011;33020;53.008;13.558;2023-05-16T04:45:34;25.42;;;14.63;;
47287;SDS011;33020;53.008;13.558;2023-05-16T04:48:03;23.73;;;15.70;;
47287;SDS011;33020;53.008;13.558;2023-05-16T04:50:30;18.92;;;14.07;;
47287;SDS011;33020;53.008;13.558;2023-05-16T04:52:57;22.60;;;15.48;;
47287;SDS011;33020;53.008;13.558;2023-05-16T04:55:24;20.23;;;13.68;;
47287;SDS011;33020;53.008;13.558;2023-05-16T04:57:52;25.58;;;15.73;;
47287;SDS011;33020;53.008;13.558;2023-05-16T05:00:19;26.40;;;16.80;;
47287;SDS011;33020;53.008;13.558;2023-05-16T05:02:47;23.23;;;14.20;;
47287;SDS011;33020;53.008;13.558;2023-05-16T05:05:13;17.90;;;11.63;;
47287;SDS011;33020;53.008;13.558;2023-05-16T05:07:42;19.92;;;13.65;;
47287;SDS011;33020;53.008;13.558;2023-05-16T05:10:09;22.15;;;14.35;;
47287;SDS011;33020;53.008;13.558;2023-05-16T05:12:36;15.48;;;11.63;;
47287;SDS011;33020;53.008;13.558;2023-05-16T05:15:03;17.40;;;11.00;;
47287;SDS011;33020;53.008;13.558;2023-05-16T05:17:31;16.17;;;11.00;;
47287;SDS011;33020;53.008;13.558;2023-05-16T05:19:59;14.88;;;10.55;;
47287;SDS011;33020;53.008;13.558;2023-05-16T05:22:29;15.15;;;9.75;;
47287;SDS011;33020;53.008;13.558;2023-05-16T05:24:56;15.90;;;10.00;;
47287;SDS011;33020;53.008;13.558;2023-05-16T05:27:22;14.75;;;10.40;;
47287;SDS011;33020;53.008;13.558;2023-05-16T05:29:50;17.35;;;10.35;;
47287;SDS011;33020;53.008;13.558;2023-05-16T05:32:17;16.20;;;10.70;;
47287;SDS011;33020;53.008;13.558;2023-05-16T05:34:44;15.48;;;10.10;;
47287;SDS011;33020;53.008;13.558;2023-05-16T05:37:10;15.93;;;10.60;;
47287;SDS011;33020;53.008;13.558;2023-05-16T05:39:37;17.35;;;11.80;;
47287;SDS011;33020;53.008;13.558;2023-05-16T05:42:04;15.45;;;10.73;;
47287;SDS011;33020;53.008;13.558;2023-05-16T05:44:31;20.23;;;12.23;;
47287;SDS011;33020;53.008;13.558;2023-05-16T05:46:58;18.25;;;12.43;;
47287;SDS011;33020;53.008;13.558;2023-05-16T05:49:25;18.70;;;12.77;;
47287;SDS011;33020;53.008;13.558;2023-05-16T05:51:52;19.92;;;12.45;;
47287;SDS011;33020;53.008;13.558;2023-05-16T05:54:19;19.08;;;12.00;;
47287;SDS011;33020;53.008;13.558;2023-05-16T05:56:46;18.17;;;12.23;;
47287;SDS011;33020;53.008;13.558;2023-05-16T05:59:12;18.95;;;12.25;;
47287;SDS011;33020;53.008;13.558;2023-05-16T06:01:39;17.77;;;11.70;;
47287;SDS011;33020;53.008;13.558;2023-05-16T06:04:06;16.67;;;10.52;;
47287;SDS011;33020;53.008;13.558;2023-05-16T06:06:33;16.27;;;10.35;;
47287;SDS011;33020;53.008;13.558;2023-05-16T06:08:59;16.98;;;10.20;;
47287;SDS011;33020;53.008;13.558;2023-05-16T06:11:26;15.50;;;10.43;;
47287;SDS011;33020;53.008;13.558;2023-05-16T06:13:53;15.88;;;10.05;;
47287;SDS011;33020;53.008;13.558;2023-05-16T06:16:23;16.20;;;10.57;;
47287;SDS011;33020;53.008;13.558;2023-05-16T06:18:50;16.13;;;10.35;;
47287;SDS011;33020;53.008;13.558;2023-05-16T06:21:17;15.90;;;10.48;;
47287;SDS011;33020;53.008;13.558;2023-05-16T06:23:44;16.85;;;10.70;;
47287;SDS011;33020;53.008;13.558;2023-05-16T06:26:10;15.80;;;10.48;;
47287;SDS011;33020;53.008;13.558;2023-05-16T06:28:37;17.20;;;10.95;;
47287;SDS011;33020;53.008;13.558;2023-05-16T06:31:04;17.50;;;11.50;;
47287;SDS011;33020;53.008;13.558;2023-05-16T06:33:31;15.93;;;10.20;;
47287;SDS011;33020;53.008;13.558;2023-05-16T06:35:57;15.65;;;10.20;;
47287;SDS011;33020;53.008;13.558;2023-05-16T06:38:26;16.08;;;10.88;;
47287;SDS011;33020;53.008;13.558;2023-05-16T06:40:52;14.77;;;9.93;;
47287;SDS011;33020;53.008;13.558;2023-05-16T06:43:19;15.50;;;10.57;;
47287;SDS011;33020;53.008;13.558;2023-05-16T06:45:45;19.08;;;9.90;;
47287;SDS011;33020;53.008;13.558;2023-05-16T06:48:12;15.13;;;10.43;;
47287;SDS011;33020;53.008;13.558;2023-05-16T06:50:46;16.05;;;11.15;;
47287;SDS011;33020;53.008;13.558;2023-05-16T06:53:13;17.13;;;10.43;;
47287;SDS011;33020;53.008;13.558;2023-05-16T06:55:40;16.70;;;9.82;;
47287;SDS011;33020;53.008;13.558;2023-05-16T06:58:07;16.85;;;10.70;;
47287;SDS011;33020;53.008;13.558;2023-05-16T07:00:34;14.95;;;10.02;;
47287;SDS011;33020;53.008;13.558;2023-05-16T07:03:01;17.52;;;10.60;;
47287;SDS011;33020;53.008;13.558;2023-05-16T07:05:29;13.90;;;9.75;;
47287;SDS011;33020;53.008;13.558;2023-05-16T07:07:56;15.90;;;10.02;;
47287;SDS011;33020;53.008;13.558;2023-05-16T07:10:23;16.70;;;9.65;;
47287;SDS011;33020;53.008;13.558;2023-05-16T07:12:50;17.13;;;9.13;;
47287;SDS011;33020;53.008;13.558;2023-05-16T07:15:16;18.42;;;9.43;;
47287;SDS011;33020;53.008;13.558;2023-05-16T07:17:43;14.15;;;8.70;;
47287;SDS011;33020;53.008;13.558;2023-05-16T07:20:10;12.13;;;8.45;;
47287;SDS011;33020;53.008;13.558;2023-05-16T07:22:39;12.85;;;8.23;;
47287;SDS011;33020;53.008;13.558;2023-05-16T07:25:06;12.95;;;8.68;;
47287;SDS011;33020;53.008;13.558;2023-05-16T07:27:38;11.88;;;8.10;;
47287;SDS011;33020;53.008;13.558;2023-05-16T07:30:07;13.57;;;9.02;;
47287;SDS011;33020;53.008;13.558;2023-05-16T07:32:35;11.52;;;8.05;;
47287;SDS011;33020;53.008;13.558;2023-05-16T07:35:03;12.90;;;6.95;;
47287;SDS011;33020;53.008;13.558;2023-05-16T07:37:30;15.35;;;8.35;;
47287;SDS011;33020;53.008;13.558;2023-05-16T07:39:58;11.60;;;7.65;;
47287;SDS011;33020;53.008;13.558;2023-05-16T07:42:25;12.55;;;7.78;;
47287;SDS011;33020;53.008;13.558;2023-05-16T07:44:51;10.35;;;6.65;;
47287;SDS011;33020;53.008;13.558;2023-05-16T07:47:18;10.93;;;7.15;;
47287;SDS011;33020;53.008;13.558;2023-05-16T07:49:45;11.18;;;6.90;;
47287;SDS011;33020;53.008;13.558;2023-05-16T07:52:11;10.07;;;6.65;;
47287;SDS011;33020;53.008;13.558;2023-05-16T07:54:38;10.45;;;6.53;;
47287;SDS011;33020;53.008;13.558;2023-05-16T07:57:06;20.88;;;12.77;;
47287;SDS011;33020;53.008;13.558;2023-05-16T07:59:33;12.75;;;6.68;;
47287;SDS011;33020;53.008;13.558;2023-05-16T08:02:00;9.18;;;6.20;;
47287;SDS011;33020;53.008;13.558;2023-05-16T08:04:26;9.25;;;7.00;;
47287;SDS011;33020;53.008;13.558;2023-05-16T08:06:53;8.25;;;5.22;;
47287;SDS011;33020;53.008;13.558;2023-05-16T08:09:26;9.10;;;6.07;;
47287;SDS011;33020;53.008;13.558;2023-05-16T08:12:00;11.90;;;6.65;;
47287;SDS011;33020;53.008;13.558;2023-05-16T08:14:45;7.75;;;5.43;;
47287;SDS011;33020;53.008;13.558;2023-05-16T08:17:28;9.68;;;6.47;;
47287;SDS011;33020;53.008;13.558;2023-05-16T08:20:17;10.73;;;6.53;;
47287;SDS011;33020;53.008;13.558;2023-05-16T08:22:51;10.18;;;7.18;;
47287;SDS011;33020;53.008;13.558;2023-05-16T08:28:32;11.88;;;6.32;;
47287;SDS011;33020;53.008;13.558;2023-05-16T08:31:59;9.07;;;5.47;;
47287;SDS011;33020;53.008;13.558;2023-05-16T08:35:57;11.32;;;6.30;;
47287;SDS011;33020;53.008;13.558;2023-05-16T08:39:48;9.40;;;5.72;;
47287;SDS011;33020;53.008;13.558;2023-05-16T08:42:58;8.55;;;5.45;;
47287;SDS011;33020;53.008;13.558;2023-05-16T08:46:49;8.65;;;5.57;;
47287;SDS011;33020;53.008;13.558;2023-05-16T08:49:22;9.98;;;5.45;;
47287;SDS011;33020;53.008;13.558;2023-05-16T08:53:01;8.15;;;4.97;;
47287;SDS011;33020;53.008;13.558;2023-05-16T08:59:43;6.90;;;4.45;;
47287;SDS011;33020;53.008;13.558;2023-05-16T09:02:57;7.90;;;4.53;;
47287;SDS011;33020;53.008;13.558;2023-05-16T09:05:25;7.47;;;4.55;;
47287;SDS011;33020;53.008;13.558;2023-05-16T09:08:40;46.63;;;21.52;;
47287;SDS011;33020;53.008;13.558;2023-05-16T09:16:10;15.20;;;8.15;;
47287;SDS011;33020;53.008;13.558;2023-05-16T09:18:56;6.88;;;5.10;;
47287;SDS011;33020;53.008;13.558;2023-05-16T09:21:42;10.77;;;5.65;;
47287;SDS011;33020;53.008;13.558;2023-05-16T09:24:10;9.07;;;4.63;;
47287;SDS011;33020;53.008;13.558;2023-05-16T09:26:37;5.88;;;3.75;;
47287;SDS011;33020;53.008;13.558;2023-05-16T09:29:09;10.88;;;5.13;;
47287;SDS011;33020;53.008;13.558;2023-05-16T09:31:37;7.57;;;3.90;;
47287;SDS011;33020;53.008;13.558;2023-05-16T09:34:07;7.53;;;3.80;;
47287;SDS011;33020;53.008;13.558;2023-05-16T09:36:36;6.72;;;3.22;;
47287;SDS011;33020;53.008;13.558;2023-05-16T09:39:04;4.30;;;2.97;;
47287;SDS011;33020;53.008;13.558;2023-05-16T09:41:32;5.68;;;3.35;;
47287;SDS011;33020;53.008;13.558;2023-05-16T09:44:03;6.93;;;3.17;;
47287;SDS011;33020;53.008;13.558;2023-05-16T09:46:33;4.88;;;2.80;;
47287;SDS011;33020;53.008;13.558;2023-05-16T09:49:00;6.78;;;3.03;;
47287;SDS011;33020;53.008;13.558;2023-05-16T09:51:26;5.93;;;3.80;;
47287;SDS011;33020;53.008;13.558;2023-05-16T09:53:53;7.28;;;3.20;;
47287;SDS011;33020;53.008;13.558;2023-05-16T09:56:20;7.65;;;3.30;;
47287;SDS011;33020;53.008;13.558;2023-05-16T09:58:47;7.35;;;3.30;;
47287;SDS011;33020;53.008;13.558;2023-05-16T10:01:17;9.18;;;8.20;;
47287;SDS011;33020;53.008;13.558;2023-05-16T10:03:46;5.97;;;3.70;;
47287;SDS011;33020;53.008;13.558;2023-05-16T10:06:13;7.60;;;3.42;;
47287;SDS011;33020;53.008;13.558;2023-05-16T10:08:42;4.05;;;2.70;;
47287;SDS011;33020;53.008;13.558;2023-05-16T10:11:09;8.73;;;3.75;;
47287;SDS011;33020;53.008;13.558;2023-05-16T10:13:36;13.60;;;10.00;;
47287;SDS011;33020;53.008;13.558;2023-05-16T10:16:08;8.52;;;4.47;;
47287;SDS011;33020;53.008;13.558;2023-05-16T10:18:37;10.77;;;6.57;;
47287;SDS011;33020;53.008;13.558;2023-05-16T10:21:04;15.05;;;9.88;;
47287;SDS011;33020;53.008;13.558;2023-05-16T10:23:36;9.75;;;5.88;;
47287;SDS011;33020;53.008;13.558;2023-05-16T10:26:04;7.95;;;4.43;;
47287;SDS011;33020;53.008;13.558;2023-05-16T10:28:31;5.43;;;2.78;;
47287;SDS011;33020;53.008;13.558;2023-05-16T10:30:58;7.68;;;4.20;;
47287;SDS011;33020;53.008;13.558;2023-05-16T10:33:27;8.52;;;2.47;;
47287;SDS011;33020;53.008;13.558;2023-05-16T10:35:54;8.52;;;4.43;;
47287;SDS011;33020;53.008;13.558;2023-05-16T10:38:21;6.15;;;3.70;;
47287;SDS011;33020;53.008;13.558;2023-05-16T10:40:49;7.00;;;2.97;;
47287;SDS011;33020;53.008;13.558;2023-05-16T10:43:23;7.90;;;3.88;;
47287;SDS011;33020;53.008;13.558;2023-05-16T10:46:05;6.60;;;3.63;;
47287;SDS011;33020;53.008;13.558;2023-05-16T10:48:36;6.40;;;2.88;;
47287;SDS011;33020;53.008;13.558;2023-05-16T10:54:07;5.13;;;2.97;;
47287;SDS011;33020;53.008;13.558;2023-05-16T10:56:35;5.40;;;2.83;;
47287;SDS011;33020;53.008;13.558;2023-05-16T10:59:02;7.22;;;3.53;;
47287;SDS011;33020;53.008;13.558;2023-05-16T11:01:33;7.05;;;2.30;;
47287;SDS011;33020;53.008;13.558;2023-05-16T11:04:04;5.45;;;2.20;;
47287;SDS011;33020;53.008;13.558;2023-05-16T11:06:33;4.88;;;2.60;;
47287;SDS011;33020;53.008;13.558;2023-05-16T11:14:28;56.92;;;29.02;;
47287;SDS011;33020;53.008;13.558;2023-05-16T11:19:48;8.95;;;4.70;;
47287;SDS011;33020;53.008;13.558;2023-05-16T11:22:25;7.50;;;3.03;;
47287;SDS011;33020;53.008;13.558;2023-05-16T11:25:15;9.02;;;3.17;;
47287;SDS011;33020;53.008;13.558;2023-05-16T11:27:44;4.65;;;2.40;;
47287;SDS011;33020;53.008;13.558;2023-05-16T11:30:15;5.18;;;2.20;;
47287;SDS011;33020;53.008;13.558;2023-05-16T11:32:44;7.00;;;2.60;;
47287;SDS011;33020;53.008;13.558;2023-05-16T11:35:13;6.30;;;2.90;;
47287;SDS011;33020;53.008;13.558;2023-05-16T11:37:41;7.03;;;2.72;;
47287;SDS011;33020;53.008;13.558;2023-05-16T11:40:09;7.05;;;2.85;;
47287;SDS011;33020;53.008;13.558;2023-05-16T11:42:41;8.20;;;2.80;;
47287;SDS011;33020;53.008;13.558;2023-05-16T11:45:19;8.70;;;3.45;;
47287;SDS011;33020;53.008;13.558;2023-05-16T11:47:50;9.98;;;3.50;;
47287;SDS011;33020;53.008;13.558;2023-05-16T11:50:19;6.55;;;2.55;;
47287;SDS011;33020;53.008;13.558;2023-05-16T11:52:56;6.75;;;3.10;;
47287;SDS011;33020;53.008;13.558;2023-05-16T11:55:24;10.20;;;3.22;;
47287;SDS011;33020;53.008;13.558;2023-05-16T11:57:58;8.00;;;3.20;;
47287;SDS011;33020;53.008;13.558;2023-05-16T12:00:25;7.93;;;3.17;;
47287;SDS011;33020;53.008;13.558;2023-05-16T12:02:53;5.90;;;3.33;;
47287;SDS011;33020;53.008;13.558;2023-05-16T12:05:20;8.85;;;3.13;;
47287;SDS011;33020;53.008;13.558;2023-05-16T12:07:53;7.68;;;2.78;;
47287;SDS011;33020;53.008;13.558;2023-05-16T12:10:20;5.72;;;2.80;;
47287;SDS011;33020;53.008;13.558;2023-05-16T12:12:48;5.10;;;2.60;;
47287;SDS011;33020;53.008;13.558;2023-05-16T12:15:18;8.93;;;3.05;;
47287;SDS011;33020;53.008;13.558;2023-05-16T12:17:44;7.68;;;2.78;;
47287;SDS011;33020;53.008;13.558;2023-05-16T12:20:13;6.43;;;2.67;;
47287;SDS011;33020;53.008;13.558;2023-05-16T12:22:42;5.47;;;2.47;;
47287;SDS011;33020;53.008;13.558;2023-05-16T12:25:17;7.70;;;2.53;;
47287;SDS011;33020;53.008;13.558;2023-05-16T12:27:46;6.63;;;2.30;;
47287;SDS011;33020;53.008;13.558;2023-05-16T12:30:15;4.22;;;2.58;;
47287;SDS011;33020;53.008;13.558;2023-05-16T12:32:43;4.43;;;2.15;;
47287;SDS011;33020;53.008;13.558;2023-05-16T12:35:10;8.02;;;1.85;;
47287;SDS011;33020;53.008;13.558;2023-05-16T12:37:42;15.45;;;2.90;;
47287;SDS011;33020;53.008;13.558;2023-05-16T12:40:09;7.10;;;2.08;;
47287;SDS011;33020;53.008;13.558;2023-05-16T12:42:37;5.97;;;2.00;;
47287;SDS011;33020;53.008;13.558;2023-05-16T12:45:04;5.28;;;1.80;;
47287;SDS011;33020;53.008;13.558;2023-05-16T12:47:34;5.00;;;2.20;;
47287;SDS011;33020;53.008;13.558;2023-05-16T12:50:07;4.47;;;1.73;;
47287;SDS011;33020;53.008;13.558;2023-05-16T12:52:35;6.47;;;1.77;;
47287;SDS011;33020;53.008;13.558;2023-05-16T12:55:02;5.43;;;2.17;;
47287;SDS011;33020;53.008;13.558;2023-05-16T12:57:29;7.85;;;2.65;;
47287;SDS011;33020;53.008;13.558;2023-05-16T12:59:57;5.82;;;1.95;;
47287;SDS011;33020;53.008;13.558;2023-05-16T13:02:23;5.80;;;2.30;;
47287;SDS011;33020;53.008;13.558;2023-05-16T13:04:50;5.97;;;2.70;;
47287;SDS011;33020;53.008;13.558;2023-05-16T13:07:17;4.35;;;2.10;;
47287;SDS011;33020;53.008;13.558;2023-05-16T13:09:44;5.88;;;2.30;;
47287;SDS011;33020;53.008;13.558;2023-05-16T13:12:10;2.75;;;1.80;;
47287;SDS011;33020;53.008;13.558;2023-05-16T13:14:39;4.07;;;1.50;;
47287;SDS011;33020;53.008;13.558;2023-05-16T13:17:09;4.68;;;1.70;;
47287;SDS011;33020;53.008;13.558;2023-05-16T13:19:37;8.52;;;2.60;;
47287;SDS011;33020;53.008;13.558;2023-05-16T13:22:03;4.05;;;1.95;;
47287;SDS011;33020;53.008;13.558;2023-05-16T13:24:30;4.38;;;1.75;;
47287;SDS011;33020;53.008;13.558;2023-05-16T13:26:57;5.63;;;2.15;;
47287;SDS011;33020;53.008;13.558;2023-05-16T13:29:24;6.03;;;2.15;;
47287;SDS011;33020;53.008;13.558;2023-05-16T13:31:51;6.85;;;2.20;;
47287;SDS011;33020;53.008;13.558;2023-05-16T13:34:18;3.17;;;1.63;;
47287;SDS011;33020;53.008;13.558;2023-05-16T13:36:45;3.63;;;1.60;;
47287;SDS011;33020;53.008;13.558;2023-05-16T13:39:20;9.27;;;2.15;;
47287;SDS011;33020;53.008;13.558;2023-05-16T13:41:47;5.90;;;2.10;;
47287;SDS011;33020;53.008;13.558;2023-05-16T13:44:15;5.80;;;1.38;;
47287;SDS011;33020;53.008;13.558;2023-05-16T13:46:42;3.00;;;1.88;;
47287;SDS011;33020;53.008;13.558;2023-05-16T13:49:08;5.95;;;1.90;;
47287;SDS011;33020;53.008;13.558;2023-05-16T13:51:35;4.35;;;2.10;;
47287;SDS011;33020;53.008;13.558;2023-05-16T13:54:02;5.88;;;1.75;;
47287;SDS011;33020;53.008;13.558;2023-05-16T13:56:29;8.95;;;2.08;;
47287;SDS011;33020;53.008;13.558;2023-05-16T13:58:55;4.30;;;1.60;;
47287;SDS011;33020;53.008;13.558;2023-05-16T14:01:31;3.83;;;1.40;;
47287;SDS011;33020;53.008;13.558;2023-05-16T14:03:58;3.95;;;2.08;;
47287;SDS011;33020;53.008;13.558;2023-05-16T14:06:25;6.85;;;2.05;;
47287;SDS011;33020;53.008;13.558;2023-05-16T14:08:52;5.43;;;1.55;;
47287;SDS011;33020;53.008;13.558;2023-05-16T14:11:19;5.85;;;1.92;;
47287;SDS011;33020;53.008;13.558;2023-05-16T14:13:54;3.63;;;1.75;;
47287;SDS011;33020;53.008;13.558;2023-05-16T14:16:21;5.68;;;1.55;;
47287;SDS011;33020;53.008;13.558;2023-05-16T14:18:48;3.95;;;1.90;;
47287;SDS011;33020;53.008;13.558;2023-05-16T14:21:15;3.78;;;1.67;;
47287;SDS011;33020;53.008;13.558;2023-05-16T14:23:42;6.75;;;1.52;;
47287;SDS011;33020;53.008;13.558;2023-05-16T14:26:08;4.10;;;1.30;;
47287;SDS011;33020;53.008;13.558;2023-05-16T14:28:35;7.07;;;1.80;;
47287;SDS011;33020;53.008;13.558;2023-05-16T14:31:02;8.23;;;2.40;;
47287;SDS011;33020;53.008;13.558;2023-05-16T14:33:28;5.65;;;1.45;;
47287;SDS011;33020;53.008;13.558;2023-05-16T14:35:56;4.03;;;1.35;;
47287;SDS011;33020;53.008;13.558;2023-05-16T14:38:23;4.65;;;1.58;;
47287;SDS011;33020;53.008;13.558;2023-05-16T14:40:49;4.82;;;1.50;;
47287;SDS011;33020;53.008;13.558;2023-05-16T14:43:16;3.20;;;1.70;;
47287;SDS011;33020;53.008;13.558;2023-05-16T14:45:43;4.07;;;1.50;;
47287;SDS011;33020;53.008;13.558;2023-05-16T14:48:09;5.28;;;1.70;;
47287;SDS011;33020;53.008;13.558;2023-05-16T14:50:36;4.18;;;1.23;;
47287;SDS011;33020;53.008;13.558;2023-05-16T14:53:03;6.43;;;1.92;;
47287;SDS011;33020;53.008;13.558;2023-05-16T14:55:29;3.30;;;1.25;;
47287;SDS011;33020;53.008;13.558;2023-05-16T14:57:56;3.35;;;1.30;;
47287;SDS011;33020;53.008;13.558;2023-05-16T15:00:25;4.90;;;1.55;;
47287;SDS011;33020;53.008;13.558;2023-05-16T15:02:56;3.53;;;1.30;;
47287;SDS011;33020;53.008;13.558;2023-05-16T15:05:22;3.72;;;1.63;;
47287;SDS011;33020;53.008;13.558;2023-05-16T15:07:51;4.25;;;1.20;;
47287;SDS011;33020;53.008;13.558;2023-05-16T15:10:17;5.72;;;1.30;;